createdAt,value
2018-01-27T00:00:54.942Z,79.87
2018-01-27T00:03:22.746Z,80.06
2018-01-27T00:05:50.290Z,80.15
2018-01-27T00:08:17.918Z,79.99
2018-01-27T00:10:45.502Z,79.95
2018-01-27T00:13:13.154Z,79.85
2018-01-27T00:15:40.710Z,79.47
2018-01-27T00:18:08.302Z,79.55
2018-01-27T00:20:35.890Z,80.00
2018-01-27T00:23:03.434Z,80.15
2018-01-27T00:25:31.140Z,80.20
2018-01-27T00:27:58.859Z,80.90
2018-01-27T00:30:26.418Z,80.88
2018-01-27T00:32:54.006Z,80.88
2018-01-27T00:35:21.546Z,80.85
2018-01-27T00:37:49.090Z,80.73
2018-01-27T00:40:16.704Z,80.67
2018-01-27T00:42:44.466Z,80.54
2018-01-27T00:45:12.090Z,80.46
2018-01-27T00:47:39.808Z,80.47
2018-01-27T00:50:07.363Z,80.52
2018-01-27T00:52:34.906Z,80.75
2018-01-27T00:55:02.509Z,80.96
2018-01-27T00:57:30.175Z,81.01
2018-01-27T00:59:57.890Z,80.95
2018-01-27T01:02:25.540Z,80.89
2018-01-27T01:04:53.231Z,80.41
2018-01-27T01:07:20.785Z,80.25
2018-01-27T01:09:48.495Z,79.89
2018-01-27T01:12:16.043Z,79.63
2018-01-27T01:14:43.634Z,79.71
2018-01-27T01:17:11.210Z,79.59
2018-01-27T01:19:38.756Z,79.85
2018-01-27T01:22:06.300Z,79.96
2018-01-27T01:24:33.886Z,79.41
2018-01-27T01:27:01.426Z,79.05
2018-01-27T01:29:28.974Z,79.32
2018-01-27T01:31:56.566Z,79.77
2018-01-27T01:34:24.133Z,79.86
2018-01-27T01:36:51.674Z,80.53
2018-01-27T01:39:19.257Z,81.18
2018-01-27T01:41:46.896Z,80.89
2018-01-27T01:44:20.064Z,80.64
2018-01-27T01:46:47.611Z,80.21
2018-01-27T01:49:24.078Z,80.30
2018-01-27T01:51:51.836Z,80.52
2018-01-27T01:54:19.374Z,80.69
2018-01-27T01:56:46.985Z,80.85
2018-01-27T01:59:14.675Z,80.54
2018-01-27T02:01:42.209Z,80.55
2018-01-27T02:04:09.806Z,80.18
2018-01-27T02:06:37.358Z,80.12
2018-01-27T02:09:05.049Z,80.17
2018-01-27T02:11:32.962Z,80.02
2018-01-27T02:14:00.505Z,79.98
2018-01-27T02:16:28.293Z,80.48
2018-01-27T02:18:55.886Z,80.92
2018-01-27T02:21:23.441Z,81.48
2018-01-27T02:23:51.051Z,81.38
2018-01-27T02:26:18.678Z,80.65
2018-01-27T02:28:46.224Z,80.32
2018-01-27T02:31:13.802Z,80.41
2018-01-27T02:33:41.418Z,80.10
2018-01-27T02:36:09.020Z,79.84
2018-01-27T02:38:36.581Z,79.88
2018-01-27T02:41:04.375Z,79.69
2018-01-27T02:43:32.091Z,79.73
2018-01-27T02:45:59.645Z,79.51
2018-01-27T02:48:27.318Z,79.49
2018-01-27T02:50:54.856Z,79.17
2018-01-27T02:53:22.666Z,79.73
2018-01-27T02:55:50.483Z,80.45
2018-01-27T02:58:18.198Z,80.84
2018-01-27T03:00:45.892Z,80.58
2018-01-27T03:03:13.490Z,79.70
2018-01-27T03:05:41.253Z,79.96
2018-01-27T03:08:08.802Z,80.29
2018-01-27T03:10:36.481Z,80.31
2018-01-27T03:13:04.099Z,80.31
2018-01-27T03:15:31.827Z,80.43
2018-01-27T03:17:59.545Z,80.63
2018-01-27T03:20:27.273Z,80.60
2018-01-27T03:22:54.992Z,80.94
2018-01-27T03:25:22.590Z,80.80
2018-01-27T03:27:50.322Z,80.97
2018-01-27T03:30:17.860Z,81.14
2018-01-27T03:32:45.551Z,81.11
2018-01-27T03:35:13.106Z,81.29
2018-01-27T03:37:40.889Z,81.13
2018-01-27T03:40:08.611Z,81.29
2018-01-27T03:42:36.226Z,80.98
2018-01-27T03:45:03.802Z,80.37
2018-01-27T03:47:31.385Z,80.25
2018-01-27T03:49:59.177Z,80.35
2018-01-27T03:52:26.718Z,80.34
2018-01-27T03:54:54.441Z,80.37
2018-01-27T03:57:21.982Z,80.42
2018-01-27T03:59:49.518Z,80.12
2018-01-27T04:02:17.165Z,79.86
2018-01-27T04:04:44.758Z,79.25
2018-01-27T04:07:12.351Z,79.66
2018-01-27T04:09:39.938Z,80.21
2018-01-27T04:12:07.483Z,80.41
2018-01-27T04:14:35.026Z,79.63
2018-01-27T04:17:02.774Z,79.82
2018-01-27T04:19:30.310Z,79.67
2018-01-27T04:21:57.846Z,79.63
2018-01-27T04:24:25.430Z,79.69
2018-01-27T04:26:53.006Z,79.91
2018-01-27T04:29:20.763Z,79.94
2018-01-27T04:31:48.483Z,79.71
2018-01-27T04:34:16.075Z,79.87
2018-01-27T04:36:43.730Z,79.62
2018-01-27T04:39:11.318Z,79.70
2018-01-27T04:41:38.855Z,79.91
2018-01-27T04:44:06.418Z,80.07
2018-01-27T04:46:34.002Z,79.99
2018-01-27T04:49:01.550Z,79.74
2018-01-27T04:51:29.086Z,79.98
2018-01-27T04:53:56.662Z,79.81
2018-01-27T04:56:24.196Z,79.84
2018-01-27T04:58:51.730Z,80.00
2018-01-27T05:01:19.442Z,79.64
2018-01-27T05:03:47.063Z,80.02
2018-01-27T05:06:14.598Z,80.17
2018-01-27T05:08:42.195Z,80.00
2018-01-27T05:11:09.726Z,80.30
2018-01-27T05:13:37.266Z,79.70
2018-01-27T05:16:05.051Z,79.67
2018-01-27T05:18:32.591Z,79.79
2018-01-27T05:21:00.136Z,80.06
2018-01-27T05:23:27.735Z,80.08
2018-01-27T05:25:55.416Z,79.47
2018-01-27T05:28:23.143Z,79.09
2018-01-27T05:30:50.811Z,79.06
2018-01-27T05:33:18.385Z,79.20
2018-01-27T05:35:45.975Z,79.18
2018-01-27T05:38:13.735Z,79.08
2018-01-27T05:40:41.280Z,78.88
2018-01-27T05:43:09.042Z,78.19
2018-01-27T05:45:36.860Z,78.77
2018-01-27T05:48:04.397Z,79.02
2018-01-27T05:50:31.942Z,79.02
2018-01-27T05:52:59.714Z,79.15
2018-01-27T05:55:27.361Z,80.16
2018-01-27T05:57:54.911Z,80.02
2018-01-27T06:00:22.870Z,79.18
2018-01-27T06:02:50.485Z,79.14
2018-01-27T06:05:18.026Z,79.50
2018-01-27T06:07:45.686Z,79.20
2018-01-27T06:10:13.287Z,78.84
2018-01-27T06:12:40.952Z,78.64
2018-01-27T06:15:08.776Z,79.06
2018-01-27T06:17:36.318Z,78.93
2018-01-27T06:20:03.886Z,78.31
2018-01-27T06:22:31.541Z,78.39
2018-01-27T06:24:59.146Z,77.66
2018-01-27T06:27:26.759Z,77.00
2018-01-27T06:29:54.298Z,76.95
2018-01-27T06:32:21.900Z,76.58
2018-01-27T06:34:49.628Z,76.12
2018-01-27T06:37:17.179Z,76.07
2018-01-27T06:39:44.769Z,76.08
2018-01-27T06:42:12.572Z,75.94
2018-01-27T06:44:40.145Z,75.88
2018-01-27T06:47:07.690Z,76.05
2018-01-27T06:49:35.238Z,75.86
2018-01-27T06:52:02.918Z,74.90
2018-01-27T06:54:30.454Z,74.44
2018-01-27T06:56:58.000Z,74.44
2018-01-27T06:59:25.554Z,73.29
2018-01-27T07:01:53.094Z,73.01
2018-01-27T07:04:20.932Z,73.44
2018-01-27T07:06:48.480Z,73.06
2018-01-27T07:09:16.026Z,71.16
2018-01-27T07:11:43.577Z,67.30
2018-01-27T07:14:11.210Z,64.87
2018-01-27T07:16:38.810Z,64.05
2018-01-27T07:19:06.358Z,64.36
2018-01-27T07:21:34.063Z,65.11
2018-01-27T07:24:01.875Z,65.99
2018-01-27T07:26:29.785Z,65.96
2018-01-27T07:28:57.442Z,66.08
2018-01-27T07:31:24.999Z,64.46
2018-01-27T07:33:52.551Z,60.19
2018-01-27T07:36:20.265Z,55.23
2018-01-27T07:38:47.802Z,50.76
2018-01-27T07:41:15.602Z,47.63
2018-01-27T07:43:43.182Z,45.21
2018-01-27T07:46:10.718Z,42.99
2018-01-27T07:48:38.249Z,41.21
2018-01-27T07:51:05.861Z,41.20
2018-01-27T07:53:33.563Z,40.69
2018-01-27T07:56:01.279Z,40.48
2018-01-27T07:58:28.822Z,39.20
2018-01-27T08:00:56.382Z,38.25
2018-01-27T08:03:24.161Z,38.47
2018-01-27T08:05:52.201Z,37.40
2018-01-27T08:08:20.099Z,36.48
2018-01-27T08:10:47.655Z,35.46
2018-01-27T08:13:15.206Z,35.65
2018-01-27T08:15:42.757Z,35.29
2018-01-27T08:18:10.475Z,35.82
2018-01-27T08:20:38.005Z,35.41
2018-01-27T08:23:05.545Z,35.58
2018-01-27T08:25:33.096Z,36.38
2018-01-27T08:28:00.841Z,36.49
2018-01-27T08:30:28.568Z,36.50
2018-01-27T08:32:56.109Z,37.33
2018-01-27T08:35:23.658Z,36.46
2018-01-27T08:37:51.266Z,35.54
2018-01-27T08:40:18.930Z,35.03
2018-01-27T08:42:46.516Z,35.81
2018-01-27T08:45:14.058Z,34.72
2018-01-27T08:47:41.658Z,33.41
2018-01-27T08:50:09.224Z,34.16
2018-01-27T08:52:36.962Z,34.23
2018-01-27T08:55:04.550Z,35.15
2018-01-27T08:57:32.087Z,35.25
2018-01-27T08:59:59.633Z,34.73
2018-01-27T09:02:27.184Z,34.38
2018-01-27T09:04:54.722Z,34.07
2018-01-27T09:07:22.527Z,33.31
2018-01-27T09:09:50.137Z,33.68
2018-01-27T09:12:17.868Z,34.23
2018-01-27T09:14:45.423Z,34.34
2018-01-27T09:17:13.130Z,35.54
2018-01-27T09:19:40.715Z,36.05
2018-01-27T09:22:08.255Z,35.26
2018-01-27T09:24:35.852Z,34.82
2018-01-27T09:27:03.562Z,34.41
2018-01-27T09:29:31.101Z,34.26
2018-01-27T09:31:58.698Z,33.02
2018-01-27T09:34:26.322Z,32.89
2018-01-27T09:36:53.862Z,33.93
2018-01-27T09:39:21.414Z,34.79
2018-01-27T09:41:48.950Z,34.92
2018-01-27T09:44:16.542Z,34.79
2018-01-27T09:46:44.079Z,34.49
2018-01-27T09:49:11.618Z,34.01
2018-01-27T09:51:39.346Z,33.79
2018-01-27T09:54:06.890Z,34.09
2018-01-27T09:56:34.474Z,33.56
2018-01-27T09:59:02.169Z,32.68
2018-01-27T10:01:29.726Z,31.49
2018-01-27T10:03:57.298Z,30.81
2018-01-27T10:06:24.965Z,30.06
2018-01-27T10:08:52.595Z,29.48
2018-01-27T10:11:20.194Z,28.73
2018-01-27T10:13:48.667Z,29.10
2018-01-27T10:16:16.223Z,29.92
2018-01-27T10:18:43.757Z,30.09
2018-01-27T10:21:11.565Z,31.25
2018-01-27T10:23:39.114Z,31.36
2018-01-27T10:26:06.899Z,32.05
2018-01-27T10:28:34.442Z,32.69
2018-01-27T10:31:02.362Z,32.64
2018-01-27T10:33:30.156Z,31.71
2018-01-27T10:35:57.746Z,31.09
2018-01-27T10:38:25.493Z,30.37
2018-01-27T10:40:53.208Z,29.90
2018-01-27T10:43:20.851Z,29.56
2018-01-27T10:45:48.443Z,28.53
2018-01-27T10:48:16.010Z,28.68
2018-01-27T10:50:43.542Z,30.76
2018-01-27T10:53:11.101Z,31.10
2018-01-27T10:55:38.641Z,30.73
2018-01-27T10:58:06.278Z,31.57
2018-01-27T11:00:33.846Z,31.10
2018-01-27T11:03:01.383Z,30.52
2018-01-27T11:05:28.933Z,30.60
2018-01-27T11:07:56.494Z,31.42
2018-01-27T11:10:24.297Z,31.20
2018-01-27T11:12:52.041Z,31.30
2018-01-27T11:15:19.757Z,30.12
2018-01-27T11:17:47.477Z,31.64
2018-01-27T11:20:15.014Z,30.65
2018-01-27T11:22:42.606Z,30.63
2018-01-27T11:25:10.142Z,30.44
2018-01-27T11:27:37.755Z,29.92
2018-01-27T11:30:05.566Z,28.98
2018-01-27T11:32:33.106Z,29.38
2018-01-27T11:35:00.806Z,29.08
2018-01-27T11:37:28.427Z,29.09
2018-01-27T11:39:55.966Z,28.58
2018-01-27T11:42:23.757Z,28.05
2018-01-27T11:44:51.290Z,27.98
2018-01-27T11:47:18.881Z,28.00
2018-01-27T11:49:46.414Z,27.28
2018-01-27T11:52:13.954Z,27.76
2018-01-27T11:54:41.503Z,28.63
2018-01-27T11:57:09.045Z,28.17
2018-01-27T11:59:36.982Z,28.94
2018-01-27T12:02:04.607Z,28.62
2018-01-27T12:04:32.153Z,29.13
2018-01-27T12:06:59.717Z,29.06
2018-01-27T12:09:27.358Z,28.61
2018-01-27T12:11:55.002Z,28.87
2018-01-27T12:14:22.601Z,28.57
2018-01-27T12:16:50.406Z,29.11
2018-01-27T12:19:18.123Z,30.07
2018-01-27T12:21:45.846Z,29.36
2018-01-27T12:24:13.426Z,29.45
2018-01-27T12:26:40.963Z,29.90
2018-01-27T12:29:08.653Z,29.22
2018-01-27T12:31:36.201Z,30.00
2018-01-27T12:34:03.932Z,29.17
2018-01-27T12:36:31.556Z,29.34
2018-01-27T12:38:59.094Z,30.77
2018-01-27T12:41:26.788Z,31.80
2018-01-27T12:43:54.362Z,32.22
2018-01-27T12:46:21.927Z,33.13
2018-01-27T12:48:49.739Z,33.65
2018-01-27T12:51:18.305Z,33.98
2018-01-27T12:53:45.897Z,34.20
2018-01-27T12:56:13.437Z,34.52
2018-01-27T12:58:40.975Z,35.32
2018-01-27T13:01:08.730Z,35.72
2018-01-27T13:03:36.358Z,36.04
2018-01-27T13:06:03.909Z,35.62
2018-01-27T13:08:31.451Z,36.66
2018-01-27T13:10:58.987Z,36.76
2018-01-27T13:13:26.566Z,37.57
2018-01-27T13:15:54.154Z,36.85
2018-01-27T13:18:21.769Z,37.35
2018-01-27T13:20:49.472Z,37.61
2018-01-27T13:23:17.053Z,37.39
2018-01-27T13:25:44.985Z,37.61
2018-01-27T13:28:12.586Z,37.14
2018-01-27T13:30:40.251Z,36.84
2018-01-27T13:33:07.798Z,37.04
2018-01-27T13:35:35.410Z,36.84
2018-01-27T13:38:03.025Z,37.55
2018-01-27T13:40:30.961Z,36.94
2018-01-27T13:42:58.524Z,37.38
2018-01-27T13:45:26.065Z,37.18
2018-01-27T13:47:53.769Z,38.32
2018-01-27T13:50:21.350Z,38.72
2018-01-27T13:52:48.966Z,38.89
2018-01-27T13:55:16.502Z,39.38
2018-01-27T13:57:44.240Z,38.79
2018-01-27T14:00:11.773Z,39.20
2018-01-27T14:02:39.362Z,38.10
2018-01-27T14:05:06.893Z,37.50
2018-01-27T14:07:34.438Z,38.06
2018-01-27T14:10:02.229Z,38.56
2018-01-27T14:12:29.764Z,39.46
2018-01-27T14:14:57.466Z,39.70
2018-01-27T14:17:25.006Z,40.23
2018-01-27T14:19:52.548Z,40.70
2018-01-27T14:22:20.319Z,40.86
2018-01-27T14:24:47.863Z,41.39
2018-01-27T14:27:15.394Z,42.38
2018-01-27T14:29:42.930Z,42.42
2018-01-27T14:32:10.531Z,42.83
2018-01-27T14:34:38.207Z,43.24
2018-01-27T14:37:05.782Z,42.94
2018-01-27T14:39:33.313Z,43.52
2018-01-27T14:42:00.967Z,44.08
2018-01-27T14:44:28.542Z,44.90
2018-01-27T14:46:56.075Z,44.49
2018-01-27T14:49:23.705Z,45.41
2018-01-27T14:51:51.250Z,46.00
2018-01-27T14:54:18.826Z,46.58
2018-01-27T14:56:46.402Z,47.69
2018-01-27T14:59:13.942Z,48.67
2018-01-27T15:01:41.626Z,50.19
2018-01-27T15:04:09.158Z,52.35
2018-01-27T15:06:36.937Z,54.35
2018-01-27T15:09:04.558Z,55.68
2018-01-27T15:11:32.090Z,57.67
2018-01-27T15:13:59.715Z,58.79
2018-01-27T15:16:27.509Z,59.37
2018-01-27T15:18:55.056Z,60.29
2018-01-27T15:21:22.845Z,61.08
2018-01-27T15:23:50.470Z,61.41
2018-01-27T15:26:18.098Z,62.30
2018-01-27T15:28:45.661Z,62.64
2018-01-27T15:31:13.324Z,62.44
2018-01-27T15:33:40.869Z,63.35
2018-01-27T15:36:08.410Z,63.78
2018-01-27T15:38:36.016Z,63.86
2018-01-27T15:41:03.687Z,64.41
2018-01-27T15:43:31.226Z,65.30
2018-01-27T15:45:58.778Z,65.04
2018-01-27T15:48:26.541Z,65.96
2018-01-27T15:50:54.123Z,65.45
2018-01-27T15:53:21.663Z,66.38
2018-01-27T15:55:49.205Z,65.74
2018-01-27T15:58:16.754Z,65.62
2018-01-27T16:00:44.286Z,66.03
2018-01-27T16:03:11.935Z,66.96
2018-01-27T16:05:39.570Z,67.89
2018-01-27T16:08:07.122Z,67.99
2018-01-27T16:10:34.813Z,68.82
2018-01-27T16:13:02.348Z,68.42
2018-01-27T16:15:29.930Z,68.56
2018-01-27T16:17:57.466Z,68.57
2018-01-27T16:20:25.006Z,69.67
2018-01-27T16:22:52.546Z,69.73
2018-01-27T16:25:20.110Z,70.28
2018-01-27T16:27:47.745Z,70.62
2018-01-27T16:30:15.263Z,70.73
2018-01-27T16:32:42.960Z,70.74
2018-01-27T16:35:10.502Z,70.33
2018-01-27T16:37:38.076Z,70.53
2018-01-27T16:40:05.820Z,71.02
2018-01-27T16:42:33.440Z,71.14
2018-01-27T16:45:00.996Z,70.96
2018-01-27T16:47:28.562Z,71.34
2018-01-27T16:49:56.109Z,71.12
2018-01-27T16:52:23.902Z,70.99
2018-01-27T16:54:51.446Z,71.66
2018-01-27T16:57:19.006Z,72.40
2018-01-27T16:59:46.666Z,72.50
2018-01-27T17:02:14.213Z,72.26
2018-01-27T17:04:41.882Z,71.76
2018-01-27T17:07:09.422Z,72.44
2018-01-27T17:09:36.966Z,72.68
2018-01-27T17:12:04.514Z,72.07
2018-01-27T17:14:32.098Z,71.47
2018-01-27T17:16:59.785Z,71.73
2018-01-27T17:19:27.332Z,71.75
2018-01-27T17:21:55.118Z,72.02
2018-01-27T17:24:22.935Z,72.32
2018-01-27T17:26:50.644Z,72.11
2018-01-27T17:29:18.228Z,72.84
2018-01-27T17:31:45.769Z,73.65
2018-01-27T17:34:13.470Z,73.62
2018-01-27T17:36:41.018Z,74.00
2018-01-27T17:39:08.634Z,74.65
2018-01-27T17:41:36.367Z,73.67
2018-01-27T17:44:03.910Z,73.35
2018-01-27T17:46:31.449Z,74.12
2018-01-27T17:48:59.121Z,73.75
2018-01-27T17:51:26.690Z,73.82
2018-01-27T17:53:54.302Z,73.46
2018-01-27T17:56:21.838Z,72.94
2018-01-27T17:58:49.374Z,72.62
2018-01-27T18:01:16.978Z,73.21
2018-01-27T18:03:44.579Z,73.26
2018-01-27T18:06:12.174Z,73.48
2018-01-27T18:08:39.717Z,73.95
2018-01-27T18:11:07.262Z,74.73
2018-01-27T18:13:34.875Z,75.63
2018-01-27T18:16:02.607Z,75.68
2018-01-27T18:18:30.210Z,76.21
2018-01-27T18:20:57.851Z,76.72
2018-01-27T18:23:25.451Z,76.88
2018-01-27T18:25:53.002Z,77.14
2018-01-27T18:28:20.703Z,76.99
2018-01-27T18:30:48.423Z,77.18
2018-01-27T18:33:16.043Z,77.60
2018-01-27T18:35:43.590Z,77.87
2018-01-27T18:38:11.142Z,77.20
2018-01-27T18:40:38.682Z,77.20
2018-01-27T18:43:06.296Z,77.53
2018-01-27T18:45:33.895Z,77.64
2018-01-27T18:48:01.445Z,77.80
2018-01-27T18:50:30.030Z,77.74
2018-01-27T18:52:57.573Z,77.83
2018-01-27T18:55:25.170Z,78.19
2018-01-27T18:57:52.804Z,78.62
2018-01-27T19:00:20.382Z,78.32
2018-01-27T19:02:48.054Z,77.86
2018-01-27T19:05:15.599Z,77.79
2018-01-27T19:07:43.188Z,78.09
2018-01-27T19:10:10.818Z,77.70
2018-01-27T19:12:38.423Z,77.95
2018-01-27T19:15:05.975Z,78.42
2018-01-27T19:17:33.556Z,78.51
2018-01-27T19:20:01.168Z,78.70
2018-01-27T19:22:28.712Z,78.87
2018-01-27T19:24:56.258Z,78.76
2018-01-27T19:27:23.934Z,79.03
2018-01-27T19:29:51.478Z,79.23
2018-01-27T19:32:19.074Z,79.39
2018-01-27T19:34:46.622Z,79.02
2018-01-27T19:37:14.302Z,78.97
2018-01-27T19:39:42.042Z,78.90
2018-01-27T19:42:09.624Z,79.00
2018-01-27T19:44:37.363Z,80.16
2018-01-27T19:47:04.909Z,79.65
2018-01-27T19:49:32.687Z,79.54
2018-01-27T19:52:00.270Z,79.33
2018-01-27T19:54:27.930Z,79.44
2018-01-27T19:56:55.526Z,79.40
2018-01-27T19:59:23.413Z,79.39
2018-01-27T20:01:50.962Z,79.29
2018-01-27T20:04:18.514Z,79.57
2018-01-27T20:06:46.057Z,79.48
2018-01-27T20:09:13.649Z,79.65
2018-01-27T20:11:41.350Z,79.91
2018-01-27T20:14:08.971Z,80.14
2018-01-27T20:16:36.522Z,80.13
2018-01-27T20:19:04.068Z,80.20
2018-01-27T20:21:31.722Z,80.10
2018-01-27T20:23:59.273Z,80.08
2018-01-27T20:26:26.906Z,80.43
2018-01-27T20:28:54.449Z,80.84
2018-01-27T20:31:22.025Z,80.50
2018-01-27T20:33:49.570Z,79.98
2018-01-27T20:36:17.166Z,79.72
2018-01-27T20:38:44.942Z,79.64
2018-01-27T20:41:12.510Z,79.31
2018-01-27T20:43:40.066Z,79.51
2018-01-27T20:46:07.656Z,79.68
2018-01-27T20:48:35.274Z,80.07
2018-01-27T20:51:02.874Z,80.78
2018-01-27T20:53:30.442Z,80.63
2018-01-27T20:55:58.066Z,80.47
2018-01-27T20:58:25.626Z,80.15
2018-01-27T21:00:53.238Z,80.79
2018-01-27T21:03:20.783Z,80.50
2018-01-27T21:05:48.528Z,80.54
2018-01-27T21:08:16.319Z,80.86
2018-01-27T21:10:43.982Z,80.60
2018-01-27T21:13:11.566Z,80.53
2018-01-27T21:15:39.101Z,80.63
2018-01-27T21:18:06.638Z,80.99
2018-01-27T21:20:34.202Z,81.15
2018-01-27T21:23:01.877Z,81.08
2018-01-27T21:25:29.479Z,81.28
2018-01-27T21:27:57.026Z,81.27
2018-01-27T21:30:24.590Z,81.38
2018-01-27T21:32:52.150Z,81.49
2018-01-27T21:35:19.743Z,81.66
2018-01-27T21:37:47.395Z,81.66
2018-01-27T21:40:14.981Z,81.59
2018-01-27T21:42:42.805Z,81.69
2018-01-27T21:45:10.353Z,81.81
2018-01-27T21:47:38.148Z,81.38
2018-01-27T21:50:05.789Z,81.42
2018-01-27T21:52:33.314Z,81.25
2018-01-27T21:55:00.858Z,81.40
2018-01-27T21:57:28.406Z,81.61
2018-01-27T21:59:55.951Z,81.37
2018-01-27T22:02:24.484Z,81.37
2018-01-27T22:04:52.045Z,81.60
2018-01-27T22:07:19.690Z,81.55
2018-01-27T22:09:47.408Z,81.54
2018-01-27T22:12:15.130Z,81.28
2018-01-27T22:14:42.718Z,81.19
2018-01-27T22:17:10.258Z,81.21
2018-01-27T22:19:37.983Z,81.10
2018-01-27T22:22:05.550Z,81.28
2018-01-27T22:24:33.312Z,81.63
2018-01-27T22:27:00.906Z,81.67
2018-01-27T22:29:28.468Z,81.73
2018-01-27T22:31:56.268Z,81.82
2018-01-27T22:34:23.984Z,81.62
2018-01-27T22:36:51.534Z,81.80
2018-01-27T22:39:19.142Z,81.82
2018-01-27T22:41:46.696Z,81.63
2018-01-27T22:44:14.252Z,81.67
2018-01-27T22:46:41.805Z,81.57
2018-01-27T22:49:09.491Z,81.69
2018-01-27T22:51:37.208Z,82.10
2018-01-27T22:54:04.769Z,82.01
2018-01-27T22:56:32.317Z,81.77
2018-01-27T22:58:59.873Z,82.39
2018-01-27T23:01:27.425Z,82.60
2018-01-27T23:03:54.982Z,82.34
2018-01-27T23:06:22.549Z,82.69
2018-01-27T23:08:50.403Z,81.96
2018-01-27T23:11:17.938Z,81.44
2018-01-27T23:13:45.481Z,81.30
2018-01-27T23:16:13.086Z,81.37
2018-01-27T23:18:40.637Z,81.41
2018-01-27T23:21:08.293Z,81.29
2018-01-27T23:23:35.835Z,81.35
2018-01-27T23:26:03.450Z,80.89
2018-01-27T23:28:31.175Z,80.72
2018-01-27T23:30:58.721Z,80.76
2018-01-27T23:33:26.352Z,80.84
2018-01-27T23:35:54.129Z,81.14
2018-01-27T23:38:21.846Z,81.45
2018-01-27T23:40:49.406Z,81.48
2018-01-27T23:43:16.954Z,81.58
2018-01-27T23:45:44.556Z,81.64
2018-01-27T23:48:12.101Z,82.04
2018-01-27T23:50:39.649Z,82.27
2018-01-27T23:53:07.210Z,82.07
2018-01-27T23:55:34.875Z,82.11
2018-01-27T23:58:02.531Z,82.03
